sensor_id;sensor_type;location;lat;lon;timestamp;pressure;altitude;pressure_sealevel;temperature
66604;BMP280;53460;39.612;8.822;2024-03-08T00:00:41;97517.78;;;10.20
66604;BMP280;53460;39.612;8.822;2024-03-08T00:03:08;97507.91;;;10.28
66604;BMP280;53460;39.612;8.822;2024-03-08T00:05:36;97508.47;;;10.23
66604;BMP280;53460;39.612;8.822;2024-03-08T00:08:05;97494.47;;;10.18
66604;BMP280;53460;39.612;8.822;2024-03-08T00:10:30;97475.09;;;10.14
66604;BMP280;53460;39.612;8.822;2024-03-08T00:12:56;97467.19;;;10.20
66604;BMP280;53460;39.612;8.822;2024-03-08T00:15:23;97471.91;;;10.25
66604;BMP280;53460;39.612;8.822;2024-03-08T00:17:48;97478.50;;;10.22
66604;BMP280;53460;39.612;8.822;2024-03-08T00:20:15;97464.53;;;10.22
66604;BMP280;53460;39.612;8.822;2024-03-08T00:22:43;97453.88;;;10.22
66604;BMP280;53460;39.612;8.822;2024-03-08T00:25:09;97446.53;;;10.18
66604;BMP280;53460;39.612;8.822;2024-03-08T00:27:35;97467.84;;;10.18
66604;BMP280;53460;39.612;8.822;2024-03-08T00:30:01;97479.84;;;10.23
66604;BMP280;53460;39.612;8.822;2024-03-08T00:32:27;97497.16;;;10.20
66604;BMP280;53460;39.612;8.822;2024-03-08T00:34:57;97479.84;;;10.23
66604;BMP280;53460;39.612;8.822;2024-03-08T00:37:23;97483.81;;;10.18
66604;BMP280;53460;39.612;8.822;2024-03-08T00:39:52;97475.84;;;10.18
66604;BMP280;53460;39.612;8.822;2024-03-08T00:42:19;97491.75;;;10.14
66604;BMP280;53460;39.612;8.822;2024-03-08T00:44:45;97491.84;;;10.20
66604;BMP280;53460;39.612;8.822;2024-03-08T00:47:10;97492.47;;;10.19
66604;BMP280;53460;39.612;8.822;2024-03-08T00:49:37;97481.84;;;10.19
66604;BMP280;53460;39.612;8.822;2024-03-08T00:52:04;97495.84;;;10.23
66604;BMP280;53460;39.612;8.822;2024-03-08T00:54:36;97501.09;;;10.17
66604;BMP280;53460;39.612;8.822;2024-03-08T00:57:02;97505.81;;;10.21
66604;BMP280;53460;39.612;8.822;2024-03-08T00:59:29;97517.78;;;10.20
66604;BMP280;53460;39.612;8.822;2024-03-08T01:01:55;97528.28;;;10.10
66604;BMP280;53460;39.612;8.822;2024-03-08T01:04:20;97493.06;;;10.13
66604;BMP280;53460;39.612;8.822;2024-03-08T01:06:46;97495.03;;;10.11
66604;BMP280;53460;39.612;8.822;2024-03-08T01:09:13;97489.81;;;10.19
66604;BMP280;53460;39.612;8.822;2024-03-08T01:11:39;97483.09;;;10.16
66604;BMP280;53460;39.612;8.822;2024-03-08T01:14:05;97485.06;;;10.13
66604;BMP280;53460;39.612;8.822;2024-03-08T01:16:31;97488.50;;;10.20
66604;BMP280;53460;39.612;8.822;2024-03-08T01:18:58;97483.75;;;10.14
66604;BMP280;53460;39.612;8.822;2024-03-08T01:21:24;97457.88;;;10.19
66604;BMP280;53460;39.612;8.822;2024-03-08T01:23:50;97439.91;;;10.21
66604;BMP280;53460;39.612;8.822;2024-03-08T01:26:15;97454.56;;;10.20
66604;BMP280;53460;39.612;8.822;2024-03-08T01:28:41;97425.94;;;10.21
66604;BMP280;53460;39.612;8.822;2024-03-08T01:31:07;97433.31;;;10.26
66604;BMP280;53460;39.612;8.822;2024-03-08T01:33:33;97435.31;;;10.28
66604;BMP280;53460;39.612;8.822;2024-03-08T01:35:58;97445.31;;;10.29
66604;BMP280;53460;39.612;8.822;2024-03-08T01:38:24;97454.00;;;10.32
66604;BMP280;53460;39.612;8.822;2024-03-08T01:40:50;97465.34;;;10.34
66604;BMP280;53460;39.612;8.822;2024-03-08T01:43:20;97462.00;;;10.32
66604;BMP280;53460;39.612;8.822;2024-03-08T01:45:47;97448.69;;;10.34
66604;BMP280;53460;39.612;8.822;2024-03-08T01:48:14;97414.03;;;10.28
66604;BMP280;53460;39.612;8.822;2024-03-08T01:50:40;97361.44;;;10.28
66604;BMP280;53460;39.612;8.822;2024-03-08T01:53:07;97314.78;;;10.25
66604;BMP280;53460;39.612;8.822;2024-03-08T01:55:33;97275.56;;;10.30
66604;BMP280;53460;39.612;8.822;2024-03-08T01:58:03;97251.56;;;10.26
66604;BMP280;53460;39.612;8.822;2024-03-08T02:00:29;97220.94;;;10.29
66604;BMP280;53460;39.612;8.822;2024-03-08T02:02:55;97210.91;;;10.19
66604;BMP280;53460;39.612;8.822;2024-03-08T02:05:23;97193.66;;;10.30
66604;BMP280;53460;39.612;8.822;2024-03-08T02:07:49;97186.97;;;10.27
66604;BMP280;53460;39.612;8.822;2024-03-08T02:10:15;97159.72;;;10.31
66604;BMP280;53460;39.612;8.822;2024-03-08T02:12:41;97161.03;;;10.30
66604;BMP280;53460;39.612;8.822;2024-03-08T02:15:07;97158.38;;;10.28
66604;BMP280;53460;39.612;8.822;2024-03-08T02:17:33;97141.03;;;10.27
66604;BMP280;53460;39.612;8.822;2024-03-08T02:20:01;97141.06;;;10.31
66604;BMP280;53460;39.612;8.822;2024-03-08T02:22:30;97144.34;;;10.23
66604;BMP280;53460;39.612;8.822;2024-03-08T02:24:56;97121.72;;;10.24
66604;BMP280;53460;39.612;8.822;2024-03-08T02:27:25;97110.34;;;10.16
66604;BMP280;53460;39.612;8.822;2024-03-08T02:29:54;97101.06;;;10.19
66604;BMP280;53460;39.612;8.822;2024-03-08T02:32:22;97081.78;;;10.20
66604;BMP280;53460;39.612;8.822;2024-03-08T02:34:48;97064.41;;;10.15
66604;BMP280;53460;39.612;8.822;2024-03-08T02:37:15;97053.13;;;10.19
66604;BMP280;53460;39.612;8.822;2024-03-08T02:39:41;97035.78;;;10.14
66604;BMP280;53460;39.612;8.822;2024-03-08T02:42:07;97037.78;;;10.15
66604;BMP280;53460;39.612;8.822;2024-03-08T02:44:32;97022.50;;;10.12
66604;BMP280;53460;39.612;8.822;2024-03-08T02:47:01;97015.81;;;10.08
66604;BMP280;53460;39.612;8.822;2024-03-08T02:49:27;97007.19;;;10.14
66604;BMP280;53460;39.612;8.822;2024-03-08T02:51:53;97003.19;;;10.15
66604;BMP280;53460;39.612;8.822;2024-03-08T02:54:19;97000.53;;;10.17
66604;BMP280;53460;39.612;8.822;2024-03-08T02:56:46;96999.84;;;10.17
66604;BMP280;53460;39.612;8.822;2024-03-08T02:59:12;97015.19;;;10.22
66604;BMP280;53460;39.612;8.822;2024-03-08T03:01:38;97011.91;;;10.26
66604;BMP280;53460;39.612;8.822;2024-03-08T03:04:04;97023.91;;;10.31
66604;BMP280;53460;39.612;8.822;2024-03-08T03:06:30;97045.88;;;10.35
66604;BMP280;53460;39.612;8.822;2024-03-08T03:08:56;97055.19;;;10.34
66604;BMP280;53460;39.612;8.822;2024-03-08T03:11:23;97063.84;;;10.35
66604;BMP280;53460;39.612;8.822;2024-03-08T03:13:49;97068.56;;;10.36
66604;BMP280;53460;39.612;8.822;2024-03-08T03:16:18;97085.84;;;10.42
66604;BMP280;53460;39.612;8.822;2024-03-08T03:18:45;97099.81;;;10.40
66604;BMP280;53460;39.612;8.822;2024-03-08T03:21:11;97096.47;;;10.33
66604;BMP280;53460;39.612;8.822;2024-03-08T03:23:39;97093.84;;;10.37
66604;BMP280;53460;39.612;8.822;2024-03-08T03:26:06;97129.13;;;10.40
66604;BMP280;53460;39.612;8.822;2024-03-08T03:28:36;97113.75;;;10.24
66604;BMP280;53460;39.612;8.822;2024-03-08T03:31:07;97099.78;;;10.32
66604;BMP280;53460;39.612;8.822;2024-03-08T03:33:33;97091.13;;;10.29
66604;BMP280;53460;39.612;8.822;2024-03-08T03:36:03;97097.19;;;10.36
66604;BMP280;53460;39.612;8.822;2024-03-08T03:38:30;97085.81;;;10.31
66604;BMP280;53460;39.612;8.822;2024-03-08T03:40:57;97084.47;;;10.28
66604;BMP280;53460;39.612;8.822;2024-03-08T03:43:29;97059.16;;;10.21
66604;BMP280;53460;39.612;8.822;2024-03-08T03:45:55;97053.16;;;10.21
66604;BMP280;53460;39.612;8.822;2024-03-08T03:48:21;97045.81;;;10.19
66604;BMP280;53460;39.612;8.822;2024-03-08T03:50:46;97025.19;;;10.18
66604;BMP280;53460;39.612;8.822;2024-03-08T03:53:12;97025.19;;;10.20
66604;BMP280;53460;39.612;8.822;2024-03-08T03:55:38;96989.88;;;10.13
66604;BMP280;53460;39.612;8.822;2024-03-08T03:58:04;96991.19;;;10.10
66604;BMP280;53460;39.612;8.822;2024-03-08T04:00:30;96985.22;;;10.12
66604;BMP280;53460;39.612;8.822;2024-03-08T04:02:55;96973.25;;;10.17
66604;BMP280;53460;39.612;8.822;2024-03-08T04:05:24;96961.91;;;10.10
66604;BMP280;53460;39.612;8.822;2024-03-08T04:07:50;96941.28;;;10.08
66604;BMP280;53460;39.612;8.822;2024-03-08T04:10:16;96918.00;;;10.15
66604;BMP280;53460;39.612;8.822;2024-03-08T04:12:41;96906.69;;;10.13
66604;BMP280;53460;39.612;8.822;2024-03-08T04:15:07;96888.03;;;10.08
66604;BMP280;53460;39.612;8.822;2024-03-08T04:17:34;96870.06;;;10.03
66604;BMP280;53460;39.612;8.822;2024-03-08T04:20:06;96838.78;;;10.01
66604;BMP280;53460;39.612;8.822;2024-03-08T04:22:40;96808.16;;;10.04
66604;BMP280;53460;39.612;8.822;2024-03-08T04:25:06;96823.50;;;10.12
66604;BMP280;53460;39.612;8.822;2024-03-08T04:27:35;96837.47;;;10.08
66604;BMP280;53460;39.612;8.822;2024-03-08T04:30:02;96823.47;;;10.08
66604;BMP280;53460;39.612;8.822;2024-03-08T04:32:28;96843.44;;;10.13
66604;BMP280;53460;39.612;8.822;2024-03-08T04:34:55;96850.78;;;10.15
66604;BMP280;53460;39.612;8.822;2024-03-08T04:37:21;96857.44;;;10.16
66604;BMP280;53460;39.612;8.822;2024-03-08T04:39:47;96871.41;;;10.14
66604;BMP280;53460;39.612;8.822;2024-03-08T04:42:14;96854.78;;;10.18
66604;BMP280;53460;39.612;8.822;2024-03-08T04:44:40;96856.09;;;10.17
66604;BMP280;53460;39.612;8.822;2024-03-08T04:47:06;96869.41;;;10.23
66604;BMP280;53460;39.612;8.822;2024-03-08T04:49:34;96885.38;;;10.23
66604;BMP280;53460;39.612;8.822;2024-03-08T04:52:04;96882.09;;;10.18
66604;BMP280;53460;39.612;8.822;2024-03-08T04:54:30;96880.75;;;10.21
66604;BMP280;53460;39.612;8.822;2024-03-08T04:56:56;96868.09;;;10.22
66604;BMP280;53460;39.612;8.822;2024-03-08T04:59:22;96874.09;;;10.20
66604;BMP280;53460;39.612;8.822;2024-03-08T05:01:49;96872.75;;;10.19
66604;BMP280;53460;39.612;8.822;2024-03-08T05:04:15;96878.09;;;10.21
66604;BMP280;53460;39.612;8.822;2024-03-08T05:06:40;96896.72;;;10.21
66604;BMP280;53460;39.612;8.822;2024-03-08T05:09:06;96892.75;;;10.26
66604;BMP280;53460;39.612;8.822;2024-03-08T05:11:45;96888.75;;;10.25
66604;BMP280;53460;39.612;8.822;2024-03-08T05:14:11;96886.09;;;10.25
66604;BMP280;53460;39.612;8.822;2024-03-08T05:16:45;96900.06;;;10.28
66604;BMP280;53460;39.612;8.822;2024-03-08T05:19:17;96900.06;;;10.26
66604;BMP280;53460;39.612;8.822;2024-03-08T05:21:47;96884.75;;;10.26
66604;BMP280;53460;39.612;8.822;2024-03-08T05:24:13;96864.78;;;10.25
66604;BMP280;53460;39.612;8.822;2024-03-08T05:26:41;96858.78;;;10.23
66604;BMP280;53460;39.612;8.822;2024-03-08T05:29:07;96871.44;;;10.30
66604;BMP280;53460;39.612;8.822;2024-03-08T05:31:48;96882.09;;;10.34
66604;BMP280;53460;39.612;8.822;2024-03-08T05:34:15;96906.75;;;10.39
66604;BMP280;53460;39.612;8.822;2024-03-08T05:36:42;96928.03;;;10.39
66604;BMP280;53460;39.612;8.822;2024-03-08T05:39:12;96938.69;;;10.39
66604;BMP280;53460;39.612;8.822;2024-03-08T05:41:41;96960.69;;;10.44
66604;BMP280;53460;39.612;8.822;2024-03-08T05:44:08;96976.66;;;10.42
66604;BMP280;53460;39.612;8.822;2024-03-08T05:46:34;96976.69;;;10.44
66604;BMP280;53460;39.612;8.822;2024-03-08T05:49:03;97001.31;;;10.42
66604;BMP280;53460;39.612;8.822;2024-03-08T05:51:38;97001.97;;;10.43
66604;BMP280;53460;39.612;8.822;2024-03-08T05:54:06;97019.94;;;10.40
66604;BMP280;53460;39.612;8.822;2024-03-08T05:56:32;97009.97;;;10.47
66604;BMP280;53460;39.612;8.822;2024-03-08T05:58:58;97029.97;;;10.54
66604;BMP280;53460;39.612;8.822;2024-03-08T06:01:24;97027.31;;;10.56
66604;BMP280;53460;39.612;8.822;2024-03-08T06:03:55;97031.97;;;10.55
66604;BMP280;53460;39.612;8.822;2024-03-08T06:06:24;97053.31;;;10.65
66604;BMP280;53460;39.612;8.822;2024-03-08T06:08:50;97072.00;;;10.69
66604;BMP280;53460;39.612;8.822;2024-03-08T06:11:17;97091.34;;;10.74
66604;BMP280;53460;39.612;8.822;2024-03-08T06:13:43;97092.66;;;10.79
66604;BMP280;53460;39.612;8.822;2024-03-08T06:16:09;97132.03;;;10.87
66604;BMP280;53460;39.612;8.822;2024-03-08T06:18:35;97154.69;;;10.90
66604;BMP280;53460;39.612;8.822;2024-03-08T06:21:07;97208.00;;;10.90
66604;BMP280;53460;39.612;8.822;2024-03-08T06:23:37;97234.03;;;10.97
66604;BMP280;53460;39.612;8.822;2024-03-08T06:26:06;97268.69;;;10.93
66604;BMP280;53460;39.612;8.822;2024-03-08T06:28:32;97286.09;;;11.13
66604;BMP280;53460;39.612;8.822;2024-03-08T06:30:58;97348.81;;;11.20
66604;BMP280;53460;39.612;8.822;2024-03-08T06:33:24;97390.88;;;11.25
66604;BMP280;53460;39.612;8.822;2024-03-08T06:35:52;97450.25;;;11.30
66604;BMP280;53460;39.612;8.822;2024-03-08T06:38:18;97501.75;;;11.53
66604;BMP280;53460;39.612;8.822;2024-03-08T06:40:44;97543.78;;;11.52
66604;BMP280;53460;39.612;8.822;2024-03-08T06:43:13;97593.28;;;11.63
66604;BMP280;53460;39.612;8.822;2024-03-08T06:45:50;97646.72;;;11.70
66604;BMP280;53460;39.612;8.822;2024-03-08T06:48:19;97678.75;;;11.72
66604;BMP280;53460;39.612;8.822;2024-03-08T06:50:45;97694.13;;;11.73
66604;BMP280;53460;39.612;8.822;2024-03-08T06:53:12;97662.78;;;11.76
66604;BMP280;53460;39.612;8.822;2024-03-08T06:55:39;97718.94;;;11.86
66604;BMP280;53460;39.612;8.822;2024-03-08T06:58:05;97736.50;;;12.07
66604;BMP280;53460;39.612;8.822;2024-03-08T07:00:32;97789.47;;;12.33
66604;BMP280;53460;39.612;8.822;2024-03-08T07:02:58;97876.97;;;12.33
66604;BMP280;53460;39.612;8.822;2024-03-08T07:05:27;97959.53;;;12.67
66604;BMP280;53460;39.612;8.822;2024-03-08T07:07:53;98068.34;;;13.20
66604;BMP280;53460;39.612;8.822;2024-03-08T07:10:22;98184.41;;;14.28
66604;BMP280;53460;39.612;8.822;2024-03-08T07:12:51;98444.63;;;14.40
66604;BMP280;53460;39.612;8.822;2024-03-08T07:15:18;98468.59;;;14.91
66604;BMP280;53460;39.612;8.822;2024-03-08T07:17:48;98650.97;;;14.78
66604;BMP280;53460;39.612;8.822;2024-03-08T07:20:14;98711.72;;;14.54
66604;BMP280;53460;39.612;8.822;2024-03-08T07:22:41;98733.06;;;14.96
66604;BMP280;53460;39.612;8.822;2024-03-08T07:25:07;98793.22;;;15.31
66604;BMP280;53460;39.612;8.822;2024-03-08T07:27:34;98755.88;;;14.04
66604;BMP280;53460;39.612;8.822;2024-03-08T07:30:03;98654.47;;;13.91
66604;BMP280;53460;39.612;8.822;2024-03-08T07:32:29;98580.91;;;14.02
66604;BMP280;53460;39.612;8.822;2024-03-08T07:34:55;98554.09;;;14.00
66604;BMP280;53460;39.612;8.822;2024-03-08T07:37:21;98604.66;;;14.22
66604;BMP280;53460;39.612;8.822;2024-03-08T07:39:47;98686.81;;;15.01
66604;BMP280;53460;39.612;8.822;2024-03-08T07:42:13;98859.84;;;16.03
66604;BMP280;53460;39.612;8.822;2024-03-08T07:44:39;98949.50;;;16.96
66604;BMP280;53460;39.612;8.822;2024-03-08T07:47:05;99054.25;;;16.66
66604;BMP280;53460;39.612;8.822;2024-03-08T07:49:35;99036.25;;;16.18
66604;BMP280;53460;39.612;8.822;2024-03-08T07:52:01;99038.22;;;16.13
66604;BMP280;53460;39.612;8.822;2024-03-08T07:54:26;99046.03;;;15.49
66604;BMP280;53460;39.612;8.822;2024-03-08T07:56:52;98951.38;;;14.66
66604;BMP280;53460;39.612;8.822;2024-03-08T07:59:18;98896.78;;;14.94
66604;BMP280;53460;39.612;8.822;2024-03-08T08:01:44;98831.59;;;14.43
66604;BMP280;53460;39.612;8.822;2024-03-08T08:04:10;98812.03;;;14.80
66604;BMP280;53460;39.612;8.822;2024-03-08T08:06:40;98837.59;;;14.83
66604;BMP280;53460;39.612;8.822;2024-03-08T08:09:09;98821.66;;;14.98
66604;BMP280;53460;39.612;8.822;2024-03-08T08:11:41;98829.28;;;15.15
66604;BMP280;53460;39.612;8.822;2024-03-08T08:14:09;98869.00;;;15.77
66604;BMP280;53460;39.612;8.822;2024-03-08T08:16:36;98938.75;;;15.65
66604;BMP280;53460;39.612;8.822;2024-03-08T08:19:06;98912.59;;;15.17
66604;BMP280;53460;39.612;8.822;2024-03-08T08:21:36;98872.69;;;15.46
66604;BMP280;53460;39.612;8.822;2024-03-08T08:24:04;98854.13;;;15.68
66604;BMP280;53460;39.612;8.822;2024-03-08T08:26:30;98933.56;;;15.79
66604;BMP280;53460;39.612;8.822;2024-03-08T08:28:56;99000.19;;;16.43
66604;BMP280;53460;39.612;8.822;2024-03-08T08:31:21;99060.97;;;16.67
66604;BMP280;53460;39.612;8.822;2024-03-08T08:33:47;99243.66;;;18.28
66604;BMP280;53460;39.612;8.822;2024-03-08T08:36:17;99303.69;;;18.22
66604;BMP280;53460;39.612;8.822;2024-03-08T08:38:44;99340.13;;;18.25
66604;BMP280;53460;39.612;8.822;2024-03-08T08:41:10;99375.41;;;17.16
66604;BMP280;53460;39.612;8.822;2024-03-08T08:43:36;99378.47;;;16.95
66604;BMP280;53460;39.612;8.822;2024-03-08T08:46:02;99337.91;;;16.82
66604;BMP280;53460;39.612;8.822;2024-03-08T08:48:28;99336.84;;;16.13
66604;BMP280;53460;39.612;8.822;2024-03-08T08:50:54;99294.81;;;16.84
66604;BMP280;53460;39.612;8.822;2024-03-08T08:53:20;99338.16;;;17.03
66604;BMP280;53460;39.612;8.822;2024-03-08T08:55:47;99363.25;;;17.70
66604;BMP280;53460;39.612;8.822;2024-03-08T08:58:13;99413.06;;;17.63
66604;BMP280;53460;39.612;8.822;2024-03-08T09:00:39;99364.84;;;16.82
66604;BMP280;53460;39.612;8.822;2024-03-08T09:03:05;99362.50;;;17.61
66604;BMP280;53460;39.612;8.822;2024-03-08T09:05:34;99361.03;;;17.52
66604;BMP280;53460;39.612;8.822;2024-03-08T09:07:59;99328.38;;;16.75
66604;BMP280;53460;39.612;8.822;2024-03-08T09:10:26;99336.06;;;16.95
66604;BMP280;53460;39.612;8.822;2024-03-08T09:12:53;99350.78;;;16.86
66604;BMP280;53460;39.612;8.822;2024-03-08T09:15:19;99331.13;;;16.79
66604;BMP280;53460;39.612;8.822;2024-03-08T09:17:46;99323.13;;;16.41
66604;BMP280;53460;39.612;8.822;2024-03-08T09:20:13;99294.75;;;16.32
66604;BMP280;53460;39.612;8.822;2024-03-08T09:22:44;99267.50;;;16.56
66604;BMP280;53460;39.612;8.822;2024-03-08T09:25:09;99253.84;;;16.42
66604;BMP280;53460;39.612;8.822;2024-03-08T09:27:35;99233.06;;;16.99
66604;BMP280;53460;39.612;8.822;2024-03-08T09:30:01;99223.78;;;16.11
66604;BMP280;53460;39.612;8.822;2024-03-08T09:32:27;99188.41;;;16.29
66604;BMP280;53460;39.612;8.822;2024-03-08T09:34:52;99166.31;;;15.93
66604;BMP280;53460;39.612;8.822;2024-03-08T09:37:18;99163.53;;;15.87
66604;BMP280;53460;39.612;8.822;2024-03-08T09:39:44;99154.53;;;16.64
66604;BMP280;53460;39.612;8.822;2024-03-08T09:42:10;99212.09;;;16.91
66604;BMP280;53460;39.612;8.822;2024-03-08T09:44:46;99212.44;;;16.65
66604;BMP280;53460;39.612;8.822;2024-03-08T09:47:15;99187.38;;;16.52
66604;BMP280;53460;39.612;8.822;2024-03-08T09:49:42;99202.16;;;16.05
66604;BMP280;53460;39.612;8.822;2024-03-08T09:52:09;99170.31;;;16.36
66604;BMP280;53460;39.612;8.822;2024-03-08T09:54:35;99173.78;;;16.42
66604;BMP280;53460;39.612;8.822;2024-03-08T09:57:05;99134.97;;;16.60
66604;BMP280;53460;39.612;8.822;2024-03-08T09:59:33;99075.44;;;15.81
66604;BMP280;53460;39.612;8.822;2024-03-08T10:01:59;99055.59;;;16.06
66604;BMP280;53460;39.612;8.822;2024-03-08T10:04:25;99070.59;;;16.24
66604;BMP280;53460;39.612;8.822;2024-03-08T10:06:53;99078.59;;;16.17
66604;BMP280;53460;39.612;8.822;2024-03-08T10:09:21;99069.44;;;16.37
66604;BMP280;53460;39.612;8.822;2024-03-08T10:11:50;99057.94;;;16.32
66604;BMP280;53460;39.612;8.822;2024-03-08T10:14:15;99082.97;;;16.43
66604;BMP280;53460;39.612;8.822;2024-03-08T10:16:41;99049.06;;;16.22
66604;BMP280;53460;39.612;8.822;2024-03-08T10:19:07;99098.78;;;16.77
66604;BMP280;53460;39.612;8.822;2024-03-08T10:21:33;99099.72;;;16.41
66604;BMP280;53460;39.612;8.822;2024-03-08T10:23:59;99117.91;;;17.03
66604;BMP280;53460;39.612;8.822;2024-03-08T10:26:25;99146.31;;;17.14
66604;BMP280;53460;39.612;8.822;2024-03-08T10:28:52;99121.16;;;16.90
66604;BMP280;53460;39.612;8.822;2024-03-08T10:31:20;99113.41;;;17.28
66604;BMP280;53460;39.612;8.822;2024-03-08T10:33:46;99084.22;;;17.00
66604;BMP280;53460;39.612;8.822;2024-03-08T10:36:13;99075.19;;;16.73
66604;BMP280;53460;39.612;8.822;2024-03-08T10:38:41;99046.56;;;16.38
66604;BMP280;53460;39.612;8.822;2024-03-08T10:41:09;98995.63;;;16.58
66604;BMP280;53460;39.612;8.822;2024-03-08T10:49:38;99044.50;;;17.01
66604;BMP280;53460;39.612;8.822;2024-03-08T10:52:06;99077.13;;;16.67
66604;BMP280;53460;39.612;8.822;2024-03-08T10:54:34;99078.81;;;16.96
66604;BMP280;53460;39.612;8.822;2024-03-08T10:57:05;99115.09;;;16.91
66604;BMP280;53460;39.612;8.822;2024-03-08T10:59:31;99128.34;;;17.37
66604;BMP280;53460;39.612;8.822;2024-03-08T11:01:58;99135.03;;;17.30
66604;BMP280;53460;39.612;8.822;2024-03-08T11:04:23;99143.72;;;17.25
66604;BMP280;53460;39.612;8.822;2024-03-08T11:06:50;99160.03;;;17.41
66604;BMP280;53460;39.612;8.822;2024-03-08T11:09:33;99156.31;;;17.02
66604;BMP280;53460;39.612;8.822;2024-03-08T11:12:23;99144.28;;;17.13
66604;BMP280;53460;39.612;8.822;2024-03-08T11:14:56;99083.44;;;16.88
66604;BMP280;53460;39.612;8.822;2024-03-08T11:19:56;99058.69;;;16.41
66604;BMP280;53460;39.612;8.822;2024-03-08T11:22:26;99027.38;;;16.70
66604;BMP280;53460;39.612;8.822;2024-03-08T11:24:53;99025.03;;;16.38
66604;BMP280;53460;39.612;8.822;2024-03-08T11:27:19;98989.00;;;16.69
66604;BMP280;53460;39.612;8.822;2024-03-08T11:30:04;98978.44;;;16.98
66604;BMP280;53460;39.612;8.822;2024-03-08T11:32:37;98983.38;;;17.24
66604;BMP280;53460;39.612;8.822;2024-03-08T11:35:20;99023.91;;;17.40
66604;BMP280;53460;39.612;8.822;2024-03-08T11:37:46;99084.84;;;17.79
66604;BMP280;53460;39.612;8.822;2024-03-08T11:40:13;99150.97;;;17.91
66604;BMP280;53460;39.612;8.822;2024-03-08T11:42:46;99203.66;;;17.98
66604;BMP280;53460;39.612;8.822;2024-03-08T11:45:17;99214.38;;;17.85
66604;BMP280;53460;39.612;8.822;2024-03-08T11:47:43;99220.28;;;17.70
66604;BMP280;53460;39.612;8.822;2024-03-08T11:50:12;99192.69;;;17.77
66604;BMP280;53460;39.612;8.822;2024-03-08T11:52:38;99182.63;;;17.80
66604;BMP280;53460;39.612;8.822;2024-03-08T11:55:06;99148.41;;;18.11
66604;BMP280;53460;39.612;8.822;2024-03-08T11:57:32;99126.28;;;17.32
66604;BMP280;53460;39.612;8.822;2024-03-08T11:59:59;99084.63;;;17.49
66604;BMP280;53460;39.612;8.822;2024-03-08T12:02:34;99100.47;;;18.09
66604;BMP280;53460;39.612;8.822;2024-03-08T12:05:03;99132.94;;;18.19
66604;BMP280;53460;39.612;8.822;2024-03-08T12:07:30;99212.25;;;18.99
66604;BMP280;53460;39.612;8.822;2024-03-08T12:12:52;99244.59;;;18.83
66604;BMP280;53460;39.612;8.822;2024-03-08T12:15:20;99247.50;;;19.66
66604;BMP280;53460;39.612;8.822;2024-03-08T12:17:48;99212.78;;;18.65
66604;BMP280;53460;39.612;8.822;2024-03-08T12:20:18;99188.41;;;18.43
66604;BMP280;53460;39.612;8.822;2024-03-08T12:22:44;99055.22;;;17.96
66604;BMP280;53460;39.612;8.822;2024-03-08T12:25:13;99014.88;;;18.30
66604;BMP280;53460;39.612;8.822;2024-03-08T12:27:40;99049.94;;;18.26
66604;BMP280;53460;39.612;8.822;2024-03-08T12:30:25;99090.59;;;18.75
66604;BMP280;53460;39.612;8.822;2024-03-08T12:35:23;99110.03;;;18.29
66604;BMP280;53460;39.612;8.822;2024-03-08T12:37:50;99111.53;;;18.66
66604;BMP280;53460;39.612;8.822;2024-03-08T12:40:17;99099.84;;;18.13
66604;BMP280;53460;39.612;8.822;2024-03-08T12:42:44;99119.44;;;18.21
66604;BMP280;53460;39.612;8.822;2024-03-08T12:45:09;99104.75;;;18.61
66604;BMP280;53460;39.612;8.822;2024-03-08T12:47:35;99118.97;;;18.72
66604;BMP280;53460;39.612;8.822;2024-03-08T12:50:03;99066.22;;;18.48
66604;BMP280;53460;39.612;8.822;2024-03-08T12:52:28;99052.03;;;18.52
66604;BMP280;53460;39.612;8.822;2024-03-08T12:54:55;99079.78;;;19.01
66604;BMP280;53460;39.612;8.822;2024-03-08T12:57:21;99058.13;;;18.65
66604;BMP280;53460;39.612;8.822;2024-03-08T12:59:47;99034.97;;;17.91
66604;BMP280;53460;39.612;8.822;2024-03-08T13:02:14;98998.66;;;18.40
66604;BMP280;53460;39.612;8.822;2024-03-08T13:04:41;99002.59;;;17.95
66604;BMP280;53460;39.612;8.822;2024-03-08T13:07:07;98961.50;;;18.20
66604;BMP280;53460;39.612;8.822;2024-03-08T13:09:33;98881.09;;;17.56
66604;BMP280;53460;39.612;8.822;2024-03-08T13:12:03;98854.19;;;17.80
66604;BMP280;53460;39.612;8.822;2024-03-08T13:14:28;98900.00;;;17.62
66604;BMP280;53460;39.612;8.822;2024-03-08T13:16:57;98872.94;;;17.38
66604;BMP280;53460;39.612;8.822;2024-03-08T13:19:24;98835.16;;;17.24
66604;BMP280;53460;39.612;8.822;2024-03-08T13:21:53;98814.88;;;17.14
66604;BMP280;53460;39.612;8.822;2024-03-08T13:24:19;98778.47;;;17.01
66604;BMP280;53460;39.612;8.822;2024-03-08T13:26:45;98743.41;;;16.97
66604;BMP280;53460;39.612;8.822;2024-03-08T13:29:10;98635.56;;;16.59
66604;BMP280;53460;39.612;8.822;2024-03-08T13:31:36;98560.22;;;16.61
66604;BMP280;53460;39.612;8.822;2024-03-08T13:34:01;98511.72;;;16.46
66604;BMP280;53460;39.612;8.822;2024-03-08T13:36:30;98437.06;;;16.73
66604;BMP280;53460;39.612;8.822;2024-03-08T13:39:04;98409.44;;;17.01
66604;BMP280;53460;39.612;8.822;2024-03-08T13:41:43;98427.63;;;16.99
66604;BMP280;53460;39.612;8.822;2024-03-08T13:44:10;98430.34;;;16.87
66604;BMP280;53460;39.612;8.822;2024-03-08T13:46:35;98410.06;;;17.22
66604;BMP280;53460;39.612;8.822;2024-03-08T13:49:05;98402.66;;;17.14
66604;BMP280;53460;39.612;8.822;2024-03-08T13:51:34;98390.59;;;17.05
66604;BMP280;53460;39.612;8.822;2024-03-08T13:54:00;98368.38;;;16.91
66604;BMP280;53460;39.612;8.822;2024-03-08T13:56:31;98209.38;;;17.15
66604;BMP280;53460;39.612;8.822;2024-03-08T13:58:57;98041.69;;;17.14
66604;BMP280;53460;39.612;8.822;2024-03-08T14:01:23;97859.97;;;17.03
66604;BMP280;53460;39.612;8.822;2024-03-08T14:03:49;97604.91;;;16.48
66604;BMP280;53460;39.612;8.822;2024-03-08T14:06:16;97351.59;;;16.73
66604;BMP280;53460;39.612;8.822;2024-03-08T14:08:41;97202.44;;;16.64
66604;BMP280;53460;39.612;8.822;2024-03-08T14:11:07;97117.56;;;17.00
66604;BMP280;53460;39.612;8.822;2024-03-08T14:13:45;97052.53;;;16.89
66604;BMP280;53460;39.612;8.822;2024-03-08T14:16:13;96930.91;;;16.54
66604;BMP280;53460;39.612;8.822;2024-03-08T14:18:39;96871.81;;;16.23
66604;BMP280;53460;39.612;8.822;2024-03-08T14:21:05;96803.34;;;16.20
66604;BMP280;53460;39.612;8.822;2024-03-08T14:23:30;96755.13;;;16.11